Thompson, MO (65285)

5:48 AM CDT on July 31, 2016 (GMT -0500)
centralia | | Change Station

Elev 899 ft 39.21 °N, 92.14 °W | Updated 36 seconds ago

Clear
Clear
68.0 °F
Feels Like 68.0 °F
N
0.2
Wind Variable Wind from South
Gusts 2.5 mph

Today
High -- | Low -- °F
--% Chance of Precip.
Yesterday
High -- | Low -- °F
Precip. -- in
Pressure 29.98 in
Visibility 10.0 miles
Clouds Clear
Dew Point 66 °F
Humidity 92%
Rainfall 0.00 in
Snow Depth Not available.
6:08 AM 8:20 PM
Waning Crescent, 7% visible
METAR KCOU 310954Z AUTO 11003KT 10SM CLR 20/18 A3000 RMK AO2 SLP151 T02000183
Pressure 29.98 in
Visibility 10.0 miles
Clouds Clear
Dew Point 66 °F
Humidity 92%
Rainfall 0.00 in
Snow Depth Not available.
6:08 AM 8:20 PM
Waning Crescent, 7% visible
METAR KCOU 310954Z AUTO 11003KT 10SM CLR 20/18 A3000 RMK AO2 SLP151 T02000183

10-Day Weather Forecast

Almanac

Astronomy

Jul. 31, 2016 Rise Set
Actual Time
Civil Twilight
Nautical Twilight
Astronomical Twilight
Moon
Length of Visible Light
Length of Day
Tomorrow will be .
, % of the Moon is Illuminated

Today's Extremes

State Highs State Lows

Community

WunderPhotos

Upload Photos

1,928,785 photos uploaded!

WunderBlog® & News

Nearby

Air Quality

  Air Quality AQ Index Pollutant
Not available.

Snow Depth

Station Depth Elevation

Earthquake Activity

City Distance Mag. Time & Date
Minimum magnitude displayed is 2.5.

Coastal Water Temperatures

Place Temperature

Stations

Nearby Weather Stations

Station Location Temp. Windchill Dew Point Humidity Wind Precip. Elev Updated Type
                   

Watches & Warnings

There are currently no watches in effect.